createdAt,value
2019-04-16T00:02:21.878Z,10.33
2019-04-16T00:04:56.707Z,10.36
2019-04-16T00:07:43.654Z,10.64
2019-04-16T00:10:16.910Z,11.42
2019-04-16T00:13:05.313Z,11.46
2019-04-16T00:15:33.952Z,11.81
2019-04-16T00:18:02.579Z,10.82
2019-04-16T00:20:36.893Z,10.91
2019-04-16T00:23:04.877Z,10.88
2019-04-16T00:25:33.512Z,10.60
2019-04-16T00:28:02.174Z,10.01
2019-04-16T00:30:35.470Z,10.62
2019-04-16T00:33:01.147Z,10.90
2019-04-16T00:35:29.862Z,11.02
2019-04-16T00:37:58.489Z,10.58
2019-04-16T00:40:27.321Z,10.61
2019-04-16T00:42:56.069Z,10.90
2019-04-16T00:45:24.692Z,10.55
2019-04-16T00:47:53.316Z,11.14
2019-04-16T00:50:21.985Z,11.44
2019-04-16T00:52:50.605Z,11.26
2019-04-16T00:55:19.233Z,11.36
2019-04-16T00:57:48.675Z,11.21
2019-04-16T01:00:17.959Z,11.44
2019-04-16T01:02:47.087Z,11.10
2019-04-16T01:05:15.834Z,11.58
2019-04-16T01:07:44.463Z,11.47
2019-04-16T01:10:13.086Z,11.60
2019-04-16T01:12:41.679Z,11.77
2019-04-16T01:15:10.408Z,11.29
2019-04-16T01:17:39.034Z,10.38
2019-04-16T01:20:11.844Z,10.30
2019-04-16T01:22:38.037Z,10.12
2019-04-16T01:25:07.155Z,9.87
2019-04-16T01:27:37.463Z,9.87
2019-04-16T01:30:08.457Z,9.18
2019-04-16T01:32:44.764Z,10.10
2019-04-16T01:38:28.048Z,10.01
2019-04-16T01:41:04.246Z,10.20
2019-04-16T01:43:32.916Z,9.97
2019-04-16T01:46:02.491Z,10.33
2019-04-16T01:48:31.433Z,9.96
2019-04-16T01:51:00.097Z,10.09
2019-04-16T01:53:28.723Z,10.45
2019-04-16T01:55:57.741Z,10.33
2019-04-16T01:58:33.839Z,10.43
2019-04-16T02:01:01.735Z,10.62
2019-04-16T02:03:30.359Z,10.85
2019-04-16T02:05:59.209Z,10.69
2019-04-16T02:08:28.295Z,10.58
2019-04-16T02:10:58.176Z,10.56
2019-04-16T02:13:26.843Z,10.17
2019-04-16T02:15:55.468Z,10.45
2019-04-16T02:18:24.193Z,10.25
2019-04-16T02:20:52.862Z,10.28
2019-04-16T02:23:21.489Z,10.13
2019-04-16T02:25:51.392Z,10.28
2019-04-16T02:28:21.751Z,9.87
2019-04-16T02:30:50.584Z,9.64
2019-04-16T02:33:19.211Z,9.19
2019-04-16T02:35:47.915Z,9.18
2019-04-16T02:38:16.559Z,9.45
2019-04-16T02:40:51.297Z,9.59
2019-04-16T02:43:15.936Z,9.59
2019-04-16T02:45:44.587Z,9.37
2019-04-16T02:48:16.733Z,9.07
2019-04-16T02:50:45.326Z,9.78
2019-04-16T02:53:31.820Z,9.97
2019-04-16T02:56:20.285Z,9.72
2019-04-16T02:58:53.526Z,9.79
2019-04-16T03:01:23.785Z,9.81
2019-04-16T03:03:56.235Z,9.88
2019-04-16T03:06:24.440Z,10.00
2019-04-16T03:08:53.068Z,9.52
2019-04-16T03:11:21.727Z,9.81
2019-04-16T03:13:52.856Z,9.84
2019-04-16T03:16:38.643Z,9.66
2019-04-16T03:19:09.033Z,9.62
2019-04-16T03:21:37.641Z,9.68
2019-04-16T03:24:09.353Z,9.74
2019-04-16T03:26:36.635Z,9.52
2019-04-16T03:29:05.263Z,9.60
2019-04-16T03:31:33.918Z,9.96
2019-04-16T03:34:02.539Z,9.84
2019-04-16T03:36:31.163Z,10.02
2019-04-16T03:38:59.744Z,10.16
2019-04-16T03:41:28.374Z,9.84
2019-04-16T03:43:56.930Z,9.93
2019-04-16T03:46:25.598Z,9.65
2019-04-16T03:48:56.164Z,9.73
2019-04-16T03:51:24.564Z,10.00
2019-04-16T03:53:53.216Z,9.46
2019-04-16T03:56:21.831Z,9.50
2019-04-16T03:58:50.464Z,9.46
2019-04-16T04:01:19.128Z,9.41
2019-04-16T04:03:47.800Z,9.46
2019-04-16T04:06:16.452Z,9.61
2019-04-16T04:08:48.001Z,9.66
2019-04-16T04:11:15.469Z,9.76
2019-04-16T04:13:44.085Z,9.85
2019-04-16T04:16:12.808Z,9.68
2019-04-16T04:18:43.153Z,9.30
2019-04-16T04:21:11.790Z,9.53
2019-04-16T04:23:40.453Z,9.51
2019-04-16T04:26:10.179Z,9.81
2019-04-16T04:28:38.983Z,9.90
2019-04-16T04:31:07.642Z,9.15
2019-04-16T04:36:09.365Z,8.86
2019-04-16T04:38:38.618Z,8.91
2019-04-16T04:41:07.830Z,8.87
2019-04-16T04:43:10.014Z,8.89
2019-04-16T04:43:36.642Z,8.71
2019-04-16T04:46:05.386Z,9.34
2019-04-16T04:48:34.007Z,8.96
2019-04-16T04:51:06.995Z,9.47
2019-04-16T04:53:33.280Z,8.97
2019-04-16T04:56:01.929Z,8.99
2019-04-16T04:58:33.788Z,9.35
2019-04-16T05:01:00.902Z,9.02
2019-04-16T05:03:49.085Z,8.98
2019-04-16T05:06:19.402Z,9.19
2019-04-16T05:08:48.021Z,8.46
2019-04-16T05:11:17.121Z,9.15
2019-04-16T05:13:45.871Z,9.75
2019-04-16T05:16:14.510Z,9.64
2019-04-16T05:18:43.142Z,9.73
2019-04-16T05:21:11.837Z,9.58
2019-04-16T05:23:40.480Z,9.78
2019-04-16T05:26:09.957Z,9.41
2019-04-16T05:28:44.314Z,9.58
2019-04-16T05:31:09.096Z,9.66
2019-04-16T05:33:38.219Z,9.85
2019-04-16T05:36:06.871Z,10.54
2019-04-16T05:38:35.505Z,10.31
2019-04-16T05:41:13.200Z,10.49
2019-04-16T05:43:34.698Z,9.48
2019-04-16T05:46:05.499Z,9.99
2019-04-16T05:48:33.667Z,9.84
2019-04-16T05:51:02.363Z,10.00
2019-04-16T05:53:30.982Z,9.80
2019-04-16T05:56:20.223Z,10.15
2019-04-16T05:58:47.803Z,9.98
2019-04-16T06:01:18.072Z,10.32
2019-04-16T06:03:46.790Z,9.89
2019-04-16T06:06:15.461Z,9.92
2019-04-16T06:08:44.104Z,9.97
2019-04-16T06:11:26.722Z,9.69
2019-04-16T06:13:47.432Z,9.46
2019-04-16T06:16:26.748Z,9.97
2019-04-16T06:19:12.988Z,10.29
2019-04-16T06:21:59.268Z,10.23
2019-04-16T06:24:32.379Z,10.26
2019-04-16T06:27:04.282Z,10.20
2019-04-16T06:29:50.453Z,9.70
2019-04-16T06:32:28.153Z,9.76
2019-04-16T06:34:58.788Z,8.93
2019-04-16T06:37:31.826Z,9.54
2019-04-16T06:40:18.135Z,9.89
2019-04-16T06:42:48.455Z,10.69
2019-04-16T06:45:18.726Z,10.31
2019-04-16T06:47:51.924Z,10.17
2019-04-16T06:50:31.080Z,10.14
2019-04-16T06:53:03.393Z,10.78
2019-04-16T06:55:36.116Z,10.47
2019-04-16T06:58:18.500Z,10.08
2019-04-16T07:01:06.768Z,9.79
2019-04-16T07:03:48.993Z,10.09
2019-04-16T07:06:36.337Z,10.44
2019-04-16T07:09:14.167Z,10.30
2019-04-16T07:11:54.164Z,10.84
2019-04-16T07:14:16.363Z,10.70
2019-04-16T07:16:45.180Z,10.77
2019-04-16T07:19:16.646Z,11.19
2019-04-16T07:21:48.648Z,11.35
2019-04-16T07:24:14.556Z,11.33
2019-04-16T07:26:46.397Z,12.06
2019-04-16T07:29:33.207Z,11.93
2019-04-16T07:32:18.731Z,12.10
2019-04-16T07:34:49.002Z,12.24
2019-04-16T07:37:19.291Z,11.68
2019-04-16T07:40:09.996Z,11.28
2019-04-16T07:42:57.966Z,11.82
2019-04-16T07:45:44.130Z,11.68
2019-04-16T07:48:32.862Z,11.51
2019-04-16T07:51:19.597Z,11.73
2019-04-16T07:53:49.871Z,11.80
2019-04-16T07:56:26.190Z,11.61
2019-04-16T07:59:00.235Z,11.58
2019-04-16T08:01:25.161Z,11.89
2019-04-16T08:03:57.452Z,11.26
2019-04-16T08:06:24.107Z,11.96
2019-04-16T08:08:53.890Z,11.99
2019-04-16T08:11:23.286Z,11.49
2019-04-16T08:13:51.928Z,11.76
2019-04-16T08:16:20.631Z,12.57
2019-04-16T08:18:50.366Z,12.35
2019-04-16T08:21:22.267Z,11.91
2019-04-16T08:23:52.883Z,11.82
2019-04-16T08:26:21.475Z,12.05
2019-04-16T08:28:50.052Z,12.76
2019-04-16T08:31:20.311Z,12.59
2019-04-16T08:33:48.989Z,12.33
2019-04-16T08:36:17.923Z,12.49
2019-04-16T08:38:46.548Z,12.11
2019-04-16T08:41:20.045Z,12.25
2019-04-16T08:43:45.640Z,12.21
2019-04-16T08:46:14.267Z,13.12
2019-04-16T08:48:42.924Z,13.22
2019-04-16T08:51:11.668Z,13.07
2019-04-16T08:53:40.259Z,11.97
2019-04-16T08:56:08.906Z,12.05
2019-04-16T08:58:38.546Z,12.07
2019-04-16T09:01:08.909Z,12.58
2019-04-16T09:03:37.517Z,12.94
2019-04-16T09:06:06.132Z,12.56
2019-04-16T09:08:45.367Z,12.80
2019-04-16T09:11:23.292Z,12.73
2019-04-16T09:13:48.150Z,12.76
2019-04-16T09:16:16.427Z,13.46
2019-04-16T09:18:55.871Z,13.50
2019-04-16T09:21:27.726Z,13.77
2019-04-16T09:24:12.825Z,13.51
2019-04-16T09:26:45.836Z,12.92
2019-04-16T09:29:16.114Z,13.76
2019-04-16T09:31:55.073Z,13.82
2019-04-16T09:34:24.442Z,13.36
2019-04-16T09:37:00.811Z,12.94
2019-04-16T09:39:40.361Z,12.99
2019-04-16T09:42:09.002Z,13.27
2019-04-16T09:44:37.625Z,13.36
2019-04-16T09:47:06.314Z,13.05
2019-04-16T09:49:37.670Z,12.55
2019-04-16T09:52:05.362Z,13.70
2019-04-16T09:54:34.028Z,14.18
2019-04-16T09:57:02.653Z,13.45
2019-04-16T09:59:32.925Z,13.14
2019-04-16T10:02:03.242Z,12.57
2019-04-16T10:04:31.868Z,13.46
2019-04-16T10:07:00.494Z,13.89
2019-04-16T10:09:29.179Z,14.05
2019-04-16T10:11:57.799Z,14.47
2019-04-16T10:14:26.429Z,14.58
2019-04-16T10:16:55.084Z,13.91
2019-04-16T10:19:23.859Z,14.18
2019-04-16T10:21:54.244Z,13.68
2019-04-16T10:24:24.558Z,13.67
2019-04-16T10:26:56.961Z,14.55
2019-04-16T10:29:25.166Z,14.10
2019-04-16T10:31:55.193Z,13.75
2019-04-16T10:34:23.893Z,13.95
2019-04-16T10:36:52.521Z,14.34
2019-04-16T10:39:28.806Z,14.45
2019-04-16T10:41:59.084Z,14.50
2019-04-16T10:44:29.344Z,14.86
2019-04-16T10:47:05.441Z,15.35
2019-04-16T10:49:51.955Z,15.58
2019-04-16T10:52:22.490Z,15.82
2019-04-16T10:57:51.081Z,15.16
2019-04-16T11:00:37.438Z,14.65
2019-04-16T11:03:10.732Z,14.81
2019-04-16T11:05:41.005Z,13.59
2019-04-16T11:08:10.601Z,13.95
2019-04-16T11:10:39.255Z,14.01
2019-04-16T11:13:09.493Z,14.80
2019-04-16T11:15:39.888Z,14.45
2019-04-16T11:18:08.575Z,14.23
2019-04-16T11:20:37.194Z,14.58
2019-04-16T11:23:07.599Z,14.92
2019-04-16T11:25:36.581Z,14.56
2019-04-16T11:28:05.217Z,15.01
2019-04-16T11:30:35.483Z,14.92
2019-04-16T11:33:04.125Z,14.97
2019-04-16T11:35:32.765Z,13.70
2019-04-16T11:38:01.382Z,13.48
2019-04-16T11:40:30.072Z,13.16
2019-04-16T11:42:58.708Z,12.44
2019-04-16T11:45:27.368Z,12.00
2019-04-16T11:47:56.025Z,11.97
2019-04-16T11:50:24.669Z,12.15
2019-04-16T11:52:57.233Z,12.74
2019-04-16T11:55:23.748Z,12.93
2019-04-16T11:57:52.513Z,13.22
2019-04-16T12:00:26.490Z,13.43
2019-04-16T12:03:13.042Z,13.23
2019-04-16T12:05:51.998Z,13.86
2019-04-16T12:08:22.299Z,14.71
2019-04-16T12:11:01.660Z,14.04
2019-04-16T12:13:31.915Z,14.13
2019-04-16T12:16:17.533Z,13.99
2019-04-16T12:18:47.793Z,14.07
2019-04-16T12:21:18.092Z,14.29
2019-04-16T12:23:48.317Z,14.54
2019-04-16T12:26:24.762Z,14.11
2019-04-16T12:28:55.036Z,14.08
2019-04-16T12:31:28.133Z,14.07
2019-04-16T12:34:07.710Z,13.39
2019-04-16T12:36:56.046Z,13.64
2019-04-16T12:39:36.037Z,13.41
2019-04-16T12:42:06.712Z,13.48
2019-04-16T12:44:45.325Z,12.65
2019-04-16T12:47:09.034Z,13.19
2019-04-16T12:49:55.799Z,12.76
2019-04-16T12:52:38.005Z,13.25
2019-04-16T12:55:24.534Z,13.69
2019-04-16T12:57:59.047Z,13.73
2019-04-16T13:00:47.286Z,13.91
2019-04-16T13:03:23.586Z,14.09
2019-04-16T13:06:11.763Z,14.37
2019-04-16T13:08:45.129Z,14.54
2019-04-16T13:11:15.391Z,13.88
2019-04-16T13:14:00.754Z,13.70
2019-04-16T13:16:47.386Z,14.28
2019-04-16T13:19:34.239Z,13.73
2019-04-16T13:22:04.336Z,15.01
2019-04-16T13:24:40.798Z,14.41
2019-04-16T13:27:27.791Z,14.45
2019-04-16T13:30:01.294Z,13.53
2019-04-16T13:32:27.961Z,13.82
2019-04-16T13:34:58.207Z,13.58
2019-04-16T13:37:30.327Z,14.23
2019-04-16T13:39:59.620Z,14.37
2019-04-16T13:42:28.799Z,13.49
2019-04-16T13:44:59.579Z,13.60
2019-04-16T13:47:29.367Z,14.26
2019-04-16T13:50:02.582Z,14.58
2019-04-16T13:52:30.041Z,14.37
2019-04-16T13:55:10.574Z,14.02
2019-04-16T13:57:44.178Z,15.14
2019-04-16T14:00:14.542Z,15.18
2019-04-16T14:02:47.811Z,15.93
2019-04-16T14:05:15.486Z,15.80
2019-04-16T14:07:44.110Z,15.14
2019-04-16T14:10:13.010Z,15.17
2019-04-16T14:12:42.770Z,15.61
2019-04-16T14:15:11.860Z,14.11
2019-04-16T14:17:52.178Z,14.42
2019-04-16T14:20:12.308Z,14.66
2019-04-16T14:22:41.692Z,15.23
2019-04-16T14:25:11.522Z,14.68
2019-04-16T14:27:40.196Z,15.82
2019-04-16T14:30:16.777Z,14.89
2019-04-16T14:32:45.439Z,14.33
2019-04-16T14:35:16.100Z,14.04
2019-04-16T14:37:44.733Z,14.01
2019-04-16T14:40:16.031Z,14.02
2019-04-16T14:42:44.662Z,13.99
2019-04-16T14:45:28.173Z,13.92
2019-04-16T14:47:56.897Z,13.90
2019-04-16T14:50:25.569Z,13.97
2019-04-16T14:52:54.226Z,13.33
2019-04-16T14:55:27.468Z,13.47
2019-04-16T14:58:03.472Z,13.70
2019-04-16T15:00:37.176Z,13.48
2019-04-16T15:03:07.442Z,13.84
2019-04-16T15:05:37.748Z,13.84
2019-04-16T15:08:14.059Z,13.72
2019-04-16T15:11:00.799Z,13.74
2019-04-16T15:13:31.100Z,14.23
2019-04-16T15:16:10.818Z,14.29
2019-04-16T15:18:33.358Z,14.13
2019-04-16T15:21:12.579Z,13.99
2019-04-16T15:23:42.938Z,14.50
2019-04-16T15:26:13.204Z,14.02
2019-04-16T15:28:43.477Z,14.14
2019-04-16T15:31:19.503Z,14.96
2019-04-16T15:33:55.761Z,14.51
2019-04-16T15:36:26.214Z,13.98
2019-04-16T15:38:59.075Z,13.65
2019-04-16T15:41:46.544Z,13.72
2019-04-16T15:44:22.834Z,14.00
2019-04-16T15:47:03.863Z,13.40
2019-04-16T15:49:34.136Z,13.39
2019-04-16T15:52:09.910Z,13.25
2019-04-16T15:54:44.929Z,13.32
2019-04-16T15:57:17.910Z,13.28
2019-04-16T15:59:54.219Z,13.30
2019-04-16T16:02:33.514Z,12.91
2019-04-16T16:05:03.820Z,13.53
2019-04-16T16:07:32.819Z,13.26
2019-04-16T16:10:12.388Z,13.58
2019-04-16T16:12:39.481Z,13.10
2019-04-16T16:15:09.825Z,12.95
2019-04-16T16:17:38.525Z,14.09
2019-04-16T16:20:10.236Z,14.38
2019-04-16T16:22:38.100Z,13.48
2019-04-16T16:25:08.009Z,13.73
2019-04-16T16:27:41.766Z,14.28
2019-04-16T16:30:07.687Z,14.25
2019-04-16T16:32:36.353Z,15.12
2019-04-16T16:35:06.585Z,15.10
2019-04-16T16:37:36.883Z,15.53
2019-04-16T16:40:06.836Z,15.14
2019-04-16T16:42:35.396Z,15.14
2019-04-16T16:45:04.641Z,15.14
2019-04-16T16:47:34.944Z,14.74
2019-04-16T16:50:03.767Z,15.22
2019-04-16T16:52:37.087Z,15.23
2019-04-16T16:55:09.117Z,15.39
2019-04-16T16:57:42.290Z,14.58
2019-04-16T17:00:24.040Z,14.59
2019-04-16T17:03:02.512Z,14.96
2019-04-16T17:05:32.840Z,15.16
2019-04-16T17:08:01.470Z,15.10
2019-04-16T17:10:30.186Z,14.89
2019-04-16T17:12:58.860Z,15.23
2019-04-16T17:15:27.555Z,14.19
2019-04-16T17:17:56.347Z,14.83
2019-04-16T17:20:25.046Z,14.67
2019-04-16T17:22:53.803Z,14.91
2019-04-16T17:25:35.491Z,15.04
2019-04-16T17:27:52.807Z,15.06
2019-04-16T17:30:21.618Z,15.15
2019-04-16T17:32:50.344Z,14.98
2019-04-16T17:35:19.002Z,14.79
2019-04-16T17:37:47.723Z,14.86
2019-04-16T17:40:18.010Z,13.77
2019-04-16T17:42:48.351Z,14.28
2019-04-16T17:45:18.602Z,14.50
2019-04-16T17:48:00.796Z,14.44
2019-04-16T17:50:39.584Z,14.31
2019-04-16T17:53:12.003Z,13.54
2019-04-16T17:55:43.265Z,13.27
2019-04-16T17:58:13.605Z,12.79
2019-04-16T18:00:46.927Z,12.98
2019-04-16T18:03:37.256Z,12.82
2019-04-16T18:06:07.408Z,12.49
2019-04-16T18:08:37.681Z,12.35
2019-04-16T18:11:10.948Z,12.37
2019-04-16T18:13:41.267Z,12.00
2019-04-16T18:16:11.587Z,12.67
2019-04-16T18:18:44.800Z,12.90
2019-04-16T18:21:18.160Z,12.69
2019-04-16T18:23:57.257Z,12.75
2019-04-16T18:26:33.243Z,12.68
2019-04-16T18:29:06.506Z,12.15
2019-04-16T18:31:42.769Z,12.53
2019-04-16T18:34:29.059Z,12.38
2019-04-16T18:37:14.224Z,12.75
2019-04-16T18:39:53.278Z,12.58
2019-04-16T18:42:23.587Z,12.95
2019-04-16T18:45:10.006Z,12.99
2019-04-16T18:47:40.327Z,12.83
2019-04-16T18:50:13.479Z,12.46
2019-04-16T18:52:42.121Z,11.77
2019-04-16T18:55:10.946Z,11.88
2019-04-16T18:57:39.577Z,12.10
2019-04-16T19:00:10.665Z,12.59
2019-04-16T19:02:42.078Z,12.17
2019-04-16T19:05:09.968Z,12.15
2019-04-16T19:07:38.681Z,12.09
2019-04-16T19:10:07.811Z,12.58
2019-04-16T19:12:36.531Z,12.91
2019-04-16T19:15:07.715Z,12.82
2019-04-16T19:17:37.779Z,11.93
2019-04-16T19:20:06.576Z,12.31
2019-04-16T19:22:35.284Z,11.53
2019-04-16T19:25:08.331Z,11.97
2019-04-16T19:27:35.284Z,11.99
2019-04-16T19:30:05.792Z,12.07
2019-04-16T19:32:36.056Z,12.31
2019-04-16T19:35:09.944Z,12.16
2019-04-16T19:37:35.399Z,11.92
2019-04-16T19:40:04.531Z,12.32
2019-04-16T19:42:33.238Z,12.31
2019-04-16T19:45:01.946Z,11.85
2019-04-16T19:47:30.684Z,12.09
2019-04-16T19:49:59.379Z,12.56
2019-04-16T19:52:29.533Z,11.99
2019-04-16T19:54:58.262Z,12.19
2019-04-16T19:57:27.044Z,10.99
2019-04-16T19:59:55.747Z,11.43
2019-04-16T20:02:25.351Z,11.13
2019-04-16T20:04:54.191Z,11.54
2019-04-16T20:07:22.852Z,11.71
2019-04-16T20:09:51.617Z,11.98
2019-04-16T20:12:20.304Z,11.72
2019-04-16T20:14:49.013Z,11.56
2019-04-16T20:17:17.749Z,11.71
2019-04-16T20:19:58.496Z,11.36
2019-04-16T20:22:31.174Z,11.08
2019-04-16T20:24:59.878Z,10.97
2019-04-16T20:27:28.623Z,11.03
2019-04-16T20:29:57.479Z,11.55
2019-04-16T20:32:27.514Z,11.45
2019-04-16T20:34:56.139Z,10.39
2019-04-16T20:37:24.820Z,11.23
2019-04-16T20:39:53.643Z,11.25
2019-04-16T20:42:22.267Z,11.66
2019-04-16T20:44:50.922Z,11.23
2019-04-16T20:47:19.474Z,11.21
2019-04-16T20:49:49.175Z,11.34
2019-04-16T20:52:18.526Z,11.43
2019-04-16T20:54:48.798Z,11.51
2019-04-16T20:57:17.432Z,11.04
2019-04-16T20:59:46.094Z,11.59
2019-04-16T21:02:14.794Z,10.93
2019-04-16T21:04:44.219Z,11.14
2019-04-16T21:07:15.369Z,11.91
2019-04-16T21:09:43.309Z,11.69
2019-04-16T21:12:13.189Z,11.28
2019-04-16T21:14:42.257Z,10.85
2019-04-16T21:17:10.888Z,10.95
2019-04-16T21:19:46.772Z,11.63
2019-04-16T21:22:17.371Z,11.72
2019-04-16T21:24:46.850Z,11.20
2019-04-16T21:27:15.571Z,11.09
2019-04-16T21:29:44.249Z,11.21
2019-04-16T21:32:23.617Z,11.11
2019-04-16T21:34:59.851Z,10.44
2019-04-16T21:37:32.006Z,10.45
2019-04-16T21:40:02.342Z,10.36
2019-04-16T21:42:34.414Z,11.02
2019-04-16T21:45:01.320Z,10.77
2019-04-16T21:47:29.978Z,10.85
2019-04-16T21:49:58.595Z,11.26
2019-04-16T21:52:27.227Z,11.25
2019-04-16T21:54:55.890Z,10.39
2019-04-16T21:57:24.510Z,11.16
2019-04-16T21:59:56.977Z,10.65
2019-04-16T22:02:25.283Z,10.69
2019-04-16T22:04:54.747Z,10.88
2019-04-16T22:07:24.587Z,11.09
2019-04-16T22:09:53.760Z,11.04
2019-04-16T22:12:22.393Z,9.87
2019-04-16T22:14:54.365Z,9.77
2019-04-16T22:17:21.383Z,10.60
2019-04-16T22:19:54.444Z,9.60
2019-04-16T22:22:20.355Z,9.63
2019-04-16T22:24:51.743Z,9.20
2019-04-16T22:27:19.350Z,9.47
2019-04-16T22:29:48.307Z,9.85
2019-04-16T22:32:19.023Z,9.34
2019-04-16T22:34:47.643Z,9.80
2019-04-16T22:37:16.275Z,9.66
2019-04-16T22:39:50.814Z,9.46
2019-04-16T22:42:18.549Z,9.76
2019-04-16T22:44:57.306Z,10.16
2019-04-16T22:47:30.477Z,10.02
2019-04-16T22:50:14.344Z,10.01
2019-04-16T22:52:30.427Z,9.41
2019-04-16T22:54:59.040Z,9.79
2019-04-16T22:57:30.871Z,9.56
2019-04-16T22:59:58.351Z,9.65
2019-04-16T23:02:28.581Z,9.46
2019-04-16T23:04:58.528Z,9.96
2019-04-16T23:07:27.587Z,9.38
2019-04-16T23:09:56.206Z,9.30
2019-04-16T23:12:28.037Z,9.50
2019-04-16T23:14:55.222Z,9.29
2019-04-16T23:17:25.474Z,9.41
2019-04-16T23:19:54.596Z,9.24
2019-04-16T23:22:24.135Z,8.89
2019-04-16T23:24:55.123Z,9.49
2019-04-16T23:27:23.092Z,9.03
2019-04-16T23:29:51.747Z,9.21
2019-04-16T23:32:20.433Z,9.66
2019-04-16T23:34:49.056Z,9.29
2019-04-16T23:37:22.999Z,9.64
2019-04-16T23:39:47.975Z,9.30
2019-04-16T23:42:19.052Z,9.34
2019-04-16T23:44:48.608Z,9.23
2019-04-16T23:47:34.831Z,9.07
2019-04-16T23:50:08.149Z,9.12
2019-04-16T23:52:38.426Z,8.74
2019-04-16T23:55:17.457Z,8.67
2019-04-16T23:58:04.667Z,8.48
